Calvin — WDH2554 — position and weather

sailwx.info

Track history (hours):
 
Tides and Currents Weather Stations Pressure Air Temp Water Temp Dewpoint Dewpoint Depression Visibility Wind Speed Wind Dir Waves Ship Positions

Calvin

Owner: Salmon Bay Barge Line, Inc., Seattle, WA. More information available from US FCC via Universal Licensing System and Coast Guard Vessel Documentation Center.

Last reported at 2017-Dec-17 07:59 UTC. Time now 2017-Dec-17 08:27 UTC.
Position N 48°22' W 122°46'.

Length 27 m; draft 4 m.

Type: Tug. MMSI: 367598820.

Date/timePositionNaut miles runAvg speedWind from/ knotsBaromVisibWave heightAir tempDewpointWater temp
2017-Dec-17 07:59N 48°22' W 122°46'4 8.4
2017-Dec-17 07:30N 48°26' W 122°45'5 9.0
2017-Dec-17 07:00N 48°31' W 122°45'5 9.3
2017-Dec-17 06:30N 48°36' W 122°45'5 9.4
2017-Dec-17 06:00N 48°40' W 122°44'5 9.6
2017-Dec-17 05:30N 48°45' W 122°47'6 9.7
2017-Dec-17 04:54N 48°48' W 122°54'12 9.1
2017-Dec-17 03:36N 48°57' W 123°06'2 9.6
2017-Dec-17 03:25N 48°58' W 123°08'5 9.7
2017-Dec-17 02:55N 49°01' W 123°14'4 8.4
2017-Dec-17 02:27N 49°03' W 123°18'3 5.9
2017-Dec-17 01:58N 49°06' W 123°18'4 7.9
2017-Dec-17 01:30N 49°08' W 123°13'4 7.7
2017-Dec-17 01:01N 49°07' W 123°08'4 7.0
2017-Dec-17 00:30N 49°08' W 123°03'2 4.3
2017-Dec-17 00:00N 49°09' W 123°00'0 0.1
2017-Dec-16 23:25N 49°09' W 123°00'0 0.0
2017-Dec-16 22:55N 49°09' W 123°00'0 0.0
2017-Dec-16 22:25N 49°09' W 123°00'0 0.0
2017-Dec-16 21:55N 49°09' W 123°00'0 0.0
2017-Dec-16 21:28N 49°09' W 123°00'0 0.0
2017-Dec-16 19:49N 49°09' W 123°00'0 0.0
2017-Dec-16 19:25N 49°09' W 123°00'0 0.0
2017-Dec-16 18:55N 49°09' W 123°00'0 0.0
2017-Dec-16 18:28N 49°09' W 123°00'0 0.0
2017-Dec-16 17:58N 49°09' W 123°00'0 0.0
2017-Dec-16 17:31N 49°09' W 123°00'0 0.0
2017-Dec-16 17:01N 49°09' W 123°00'0 0.0
2017-Dec-16 16:30N 49°09' W 123°00'0 0.0
2017-Dec-16 16:00N 49°09' W 123°00'0 0.0
2017-Dec-16 15:30N 49°09' W 123°00'0 0.0
2017-Dec-16 15:00N 49°09' W 123°00'0 0.0
2017-Dec-16 14:30N 49°09' W 123°00'0 0.0
2017-Dec-16 13:24N 49°09' W 123°00'0 0.0
2017-Dec-16 12:54N 49°09' W 123°00'0 0.0
2017-Dec-16 12:30N 49°09' W 123°00'0 0.0
2017-Dec-16 12:00N 49°09' W 123°00'0 0.0
2017-Dec-16 11:30N 49°09' W 123°00'0 0.0
2017-Dec-16 11:00N 49°09' W 123°00'0 0.0
2017-Dec-16 10:30N 49°09' W 123°00'0 0.0
2017-Dec-16 10:00N 49°09' W 123°00'0 0.0
2017-Dec-16 09:30N 49°09' W 123°00'0 0.0
2017-Dec-16 09:00N 49°09' W 123°00'0 0.0
2017-Dec-16 08:30N 49°09' W 123°00'0 0.0
2017-Dec-16 08:00N 49°09' W 123°00'0 0.0
2017-Dec-16 07:30N 49°09' W 123°00'0 0.0
2017-Dec-16 07:00N 49°09' W 123°00'0 0.0
2017-Dec-16 06:27N 49°09' W 123°00'0 0.0
2017-Dec-16 06:00N 49°09' W 123°00'0 0.0
2017-Dec-16 05:30N 49°09' W 123°00'0 0.0
2017-Dec-16 05:00N 49°09' W 123°00'0 0.0
2017-Dec-16 04:30N 49°09' W 123°00'0 0.0
2017-Dec-16 04:00N 49°09' W 123°00'0 0.0
2017-Dec-16 03:30N 49°09' W 123°00'0 0.0
2017-Dec-16 03:00N 49°09' W 123°00'0 0.0
2017-Dec-16 02:30N 49°09' W 123°00'0 0.0
2017-Dec-16 02:00N 49°09' W 123°00'0 0.0
2017-Dec-16 01:30N 49°09' W 123°00'0 0.0
2017-Dec-16 01:00N 49°09' W 123°00'0 0.0
2017-Dec-16 00:30N 49°09' W 123°00'0 0.0
2017-Dec-15 23:59N 49°09' W 123°00'0 0.0
2017-Dec-15 23:26N 49°09' W 123°00'0 0.0
2017-Dec-15 22:59N 49°09' W 123°00'0 0.0
2017-Dec-15 22:26N 49°09' W 123°00'0 0.0
2017-Dec-15 21:56N 49°09' W 123°00'0 0.0
2017-Dec-15 21:26N 49°09' W 123°00'0 0.0
2017-Dec-15 20:59N 49°09' W 123°00'0 0.0
2017-Dec-15 20:29N 49°09' W 123°00'0 0.0
2017-Dec-15 19:59N 49°09' W 123°00'0 0.0
2017-Dec-15 19:29N 49°09' W 123°00'0 0.0
2017-Dec-15 18:53N 49°09' W 123°00'0 0.0
2017-Dec-15 18:29N 49°09' W 123°00'0 0.0
2017-Dec-15 17:56N 49°09' W 123°00'0 0.0
2017-Dec-15 17:29N 49°09' W 123°00'0 0.0
2017-Dec-15 16:59N 49°09' W 123°00'0 0.0
2017-Dec-15 16:29N 49°09' W 123°00'0 0.0
2017-Dec-15 15:56N 49°09' W 123°00'0 0.0
2017-Dec-15 15:26N 49°09' W 123°00'0 0.0
2017-Dec-15 14:56N 49°09' W 123°00'0 0.0
2017-Dec-15 14:29N 49°09' W 123°00'0 0.0
2017-Dec-15 13:56N 49°09' W 123°00'0 0.0
2017-Dec-15 13:26N 49°09' W 123°00'0 0.0
2017-Dec-15 12:56N 49°09' W 123°00'0 0.0
2017-Dec-15 12:23N 49°09' W 123°00'0 0.0
2017-Dec-15 11:59N 49°09' W 123°00'0 0.0
2017-Dec-15 11:05N 49°09' W 123°00'0 0.0
2017-Dec-15 10:59N 49°09' W 123°00'0 0.0
2017-Dec-15 10:02N 49°09' W 123°00'0 0.0
2017-Dec-15 09:56N 49°09' W 123°00'0 0.0
2017-Dec-15 09:29N 49°09' W 123°00'0 0.0
2017-Dec-15 08:56N 49°09' W 123°00'0 0.0
2017-Dec-15 08:29N 49°09' W 123°00'0 0.1
2017-Dec-15 07:44N 49°09' W 123°00'0 0.0
2017-Dec-15 07:02N 49°09' W 123°00'0 0.0
2017-Dec-15 05:56N 49°09' W 123°00'0 0.0
2017-Dec-15 04:14N 49°09' W 123°00'0 0.0
2017-Dec-15 03:56N 49°09' W 123°00'0 0.0
2017-Dec-14 18:28N 49°09' W 123°00'0 0.0
2017-Dec-14 17:58N 49°09' W 123°00'0 0.0
2017-Dec-14 17:22N 49°09' W 123°00'0 0.0
2017-Dec-14 16:58N 49°09' W 123°00'0 0.0
2017-Dec-14 16:25N 49°09' W 123°00'0 0.0
2017-Dec-14 15:52N 49°09' W 123°00'0 0.0
2017-Dec-14 14:58N 49°09' W 123°00'0 0.0
2017-Dec-14 14:28N 49°09' W 123°00'0 0.2
2017-Dec-14 13:59N 49°09' W 123°00'1 1.7
2017-Dec-14 13:30N 49°09' W 123°01'3 6.2
2017-Dec-14 13:00N 49°07' W 123°05'4 7.8
2017-Dec-14 12:30N 49°07' W 123°11'3 6.7
2017-Dec-14 12:00N 49°07' W 123°16'3 6.0
2017-Dec-14 11:29N 49°04' W 123°19'2 5.1
2017-Dec-14 11:00N 49°03' W 123°17'3 4.7
2017-Dec-14 10:28N 49°01' W 123°14'3 5.6
2017-Dec-14 09:58N 48°59' W 123°11'3 5.6
2017-Dec-14 09:25N 48°57' W 123°07'2 5.7
2017-Dec-14 09:00N 48°55' W 123°05'3 5.5
2017-Dec-14 08:24N 48°53' W 123°01'2 5.3
2017-Dec-14 07:56N 48°51' W 122°58'7 6.7
2017-Dec-14 06:52N 48°47' W 122°50'3 7.3
2017-Dec-14 06:30N 48°46' W 122°46'4 8.3
2017-Dec-14 06:00N 48°42' W 122°43'4 7.8
2017-Dec-14 05:30N 48°38' W 122°44'4 7.7
2017-Dec-14 05:00N 48°34' W 122°45'4 7.5
2017-Dec-14 04:31N 48°31' W 122°44'4 6.9
2017-Dec-14 04:00N 48°27' W 122°44'3 6.7
2017-Dec-14 03:30N 48°24' W 122°44'4 7.1
2017-Dec-14 02:55N 48°20' W 122°46'21 9.4
2017-Dec-14 00:41N 47°60' W 122°36'211.6
2017-Dec-14 00:30N 47°58' W 122°34'510.1
2017-Dec-14 00:00N 47°55' W 122°29'5 9.5
2017-Dec-13 23:30N 47°50' W 122°27'4 8.9
2017-Dec-13 23:01N 47°46' W 122°26'4 8.6
2017-Dec-13 22:30N 47°41' W 122°27'4 8.2
2017-Dec-13 22:01N 47°37' W 122°26'3 6.6
2017-Dec-13 21:31N 47°36' W 122°22'2 3.3
2017-Dec-13 21:01N 47°34' W 122°21'1 1.6
2017-Dec-13 20:29N 47°33' W 122°21'0 0.0
2017-Dec-13 20:00N 47°33' W 122°21'0 0.0
2017-Dec-13 19:31N 47°33' W 122°21'0 0.0
2017-Dec-13 19:00N 47°33' W 122°21'0 0.0
2017-Dec-13 18:11N 47°33' W 122°21'0 0.0
2017-Dec-13 17:56N 47°33' W 122°21'  
Track history (hours):
 
Tides and Currents Weather Stations Pressure Air Temp Water Temp Dewpoint Dewpoint Depression Visibility Wind Speed Wind Dir Waves Ship Positions

Calvin

Owner: Salmon Bay Barge Line, Inc., Seattle, WA. More information available from US FCC via Universal Licensing System and Coast Guard Vessel Documentation Center.

Last reported at 2017-Dec-17 07:59 UTC. Time now 2017-Dec-17 08:27 UTC.
Position N 48°22' W 122°46'.

Length 27 m; draft 4 m.

Type: Tug. MMSI: 367598820.

Date/timePositionNaut miles runAvg speedWind from/ knotsBaromVisibWave heightAir tempDewpointWater temp
2017-Dec-17 07:59N 48°22' W 122°46'4 8.4
2017-Dec-17 07:30N 48°26' W 122°45'5 9.0
2017-Dec-17 07:00N 48°31' W 122°45'5 9.3
2017-Dec-17 06:30N 48°36' W 122°45'5 9.4
2017-Dec-17 06:00N 48°40' W 122°44'5 9.6
2017-Dec-17 05:30N 48°45' W 122°47'6 9.7
2017-Dec-17 04:54N 48°48' W 122°54'12 9.1
2017-Dec-17 03:36N 48°57' W 123°06'2 9.6
2017-Dec-17 03:25N 48°58' W 123°08'5 9.7
2017-Dec-17 02:55N 49°01' W 123°14'4 8.4
2017-Dec-17 02:27N 49°03' W 123°18'3 5.9
2017-Dec-17 01:58N 49°06' W 123°18'4 7.9
2017-Dec-17 01:30N 49°08' W 123°13'4 7.7
2017-Dec-17 01:01N 49°07' W 123°08'4 7.0
2017-Dec-17 00:30N 49°08' W 123°03'2 4.3
2017-Dec-17 00:00N 49°09' W 123°00'0 0.1
2017-Dec-16 23:25N 49°09' W 123°00'0 0.0
2017-Dec-16 22:55N 49°09' W 123°00'0 0.0
2017-Dec-16 22:25N 49°09' W 123°00'0 0.0
2017-Dec-16 21:55N 49°09' W 123°00'0 0.0
2017-Dec-16 21:28N 49°09' W 123°00'0 0.0
2017-Dec-16 19:49N 49°09' W 123°00'0 0.0
2017-Dec-16 19:25N 49°09' W 123°00'0 0.0
2017-Dec-16 18:55N 49°09' W 123°00'0 0.0
2017-Dec-16 18:28N 49°09' W 123°00'0 0.0
2017-Dec-16 17:58N 49°09' W 123°00'0 0.0
2017-Dec-16 17:31N 49°09' W 123°00'0 0.0
2017-Dec-16 17:01N 49°09' W 123°00'0 0.0
2017-Dec-16 16:30N 49°09' W 123°00'0 0.0
2017-Dec-16 16:00N 49°09' W 123°00'0 0.0
2017-Dec-16 15:30N 49°09' W 123°00'0 0.0
2017-Dec-16 15:00N 49°09' W 123°00'0 0.0
2017-Dec-16 14:30N 49°09' W 123°00'0 0.0
2017-Dec-16 13:24N 49°09' W 123°00'0 0.0
2017-Dec-16 12:54N 49°09' W 123°00'0 0.0
2017-Dec-16 12:30N 49°09' W 123°00'0 0.0
2017-Dec-16 12:00N 49°09' W 123°00'0 0.0
2017-Dec-16 11:30N 49°09' W 123°00'0 0.0
2017-Dec-16 11:00N 49°09' W 123°00'0 0.0
2017-Dec-16 10:30N 49°09' W 123°00'0 0.0
2017-Dec-16 10:00N 49°09' W 123°00'0 0.0
2017-Dec-16 09:30N 49°09' W 123°00'0 0.0
2017-Dec-16 09:00N 49°09' W 123°00'0 0.0
2017-Dec-16 08:30N 49°09' W 123°00'0 0.0
2017-Dec-16 08:00N 49°09' W 123°00'0 0.0
2017-Dec-16 07:30N 49°09' W 123°00'0 0.0
2017-Dec-16 07:00N 49°09' W 123°00'0 0.0
2017-Dec-16 06:27N 49°09' W 123°00'0 0.0
2017-Dec-16 06:00N 49°09' W 123°00'0 0.0
2017-Dec-16 05:30N 49°09' W 123°00'0 0.0
2017-Dec-16 05:00N 49°09' W 123°00'0 0.0
2017-Dec-16 04:30N 49°09' W 123°00'0 0.0
2017-Dec-16 04:00N 49°09' W 123°00'0 0.0
2017-Dec-16 03:30N 49°09' W 123°00'0 0.0
2017-Dec-16 03:00N 49°09' W 123°00'0 0.0
2017-Dec-16 02:30N 49°09' W 123°00'0 0.0
2017-Dec-16 02:00N 49°09' W 123°00'0 0.0
2017-Dec-16 01:30N 49°09' W 123°00'0 0.0
2017-Dec-16 01:00N 49°09' W 123°00'0 0.0
2017-Dec-16 00:30N 49°09' W 123°00'0 0.0
2017-Dec-15 23:59N 49°09' W 123°00'0 0.0
2017-Dec-15 23:26N 49°09' W 123°00'0 0.0
2017-Dec-15 22:59N 49°09' W 123°00'0 0.0
2017-Dec-15 22:26N 49°09' W 123°00'0 0.0
2017-Dec-15 21:56N 49°09' W 123°00'0 0.0
2017-Dec-15 21:26N 49°09' W 123°00'0 0.0
2017-Dec-15 20:59N 49°09' W 123°00'0 0.0
2017-Dec-15 20:29N 49°09' W 123°00'0 0.0
2017-Dec-15 19:59N 49°09' W 123°00'0 0.0
2017-Dec-15 19:29N 49°09' W 123°00'0 0.0
2017-Dec-15 18:53N 49°09' W 123°00'0 0.0
2017-Dec-15 18:29N 49°09' W 123°00'0 0.0
2017-Dec-15 17:56N 49°09' W 123°00'0 0.0
2017-Dec-15 17:29N 49°09' W 123°00'0 0.0
2017-Dec-15 16:59N 49°09' W 123°00'0 0.0
2017-Dec-15 16:29N 49°09' W 123°00'0 0.0
2017-Dec-15 15:56N 49°09' W 123°00'0 0.0
2017-Dec-15 15:26N 49°09' W 123°00'0 0.0
2017-Dec-15 14:56N 49°09' W 123°00'0 0.0
2017-Dec-15 14:29N 49°09' W 123°00'0 0.0
2017-Dec-15 13:56N 49°09' W 123°00'0 0.0
2017-Dec-15 13:26N 49°09' W 123°00'0 0.0
2017-Dec-15 12:56N 49°09' W 123°00'0 0.0
2017-Dec-15 12:23N 49°09' W 123°00'0 0.0
2017-Dec-15 11:59N 49°09' W 123°00'0 0.0
2017-Dec-15 11:05N 49°09' W 123°00'0 0.0
2017-Dec-15 10:59N 49°09' W 123°00'0 0.0
2017-Dec-15 10:02N 49°09' W 123°00'0 0.0
2017-Dec-15 09:56N 49°09' W 123°00'0 0.0
2017-Dec-15 09:29N 49°09' W 123°00'0 0.0
2017-Dec-15 08:56N 49°09' W 123°00'0 0.0
2017-Dec-15 08:29N 49°09' W 123°00'0 0.1
2017-Dec-15 07:44N 49°09' W 123°00'0 0.0
2017-Dec-15 07:02N 49°09' W 123°00'0 0.0
2017-Dec-15 05:56N 49°09' W 123°00'0 0.0
2017-Dec-15 04:14N 49°09' W 123°00'0 0.0
2017-Dec-15 03:56N 49°09' W 123°00'0 0.0
2017-Dec-14 18:28N 49°09' W 123°00'0 0.0
2017-Dec-14 17:58N 49°09' W 123°00'0 0.0
2017-Dec-14 17:22N 49°09' W 123°00'0 0.0
2017-Dec-14 16:58N 49°09' W 123°00'0 0.0
2017-Dec-14 16:25N 49°09' W 123°00'0 0.0
2017-Dec-14 15:52N 49°09' W 123°00'0 0.0
2017-Dec-14 14:58N 49°09' W 123°00'0 0.0
2017-Dec-14 14:28N 49°09' W 123°00'0 0.2
2017-Dec-14 13:59N 49°09' W 123°00'1 1.7
2017-Dec-14 13:30N 49°09' W 123°01'3 6.2
2017-Dec-14 13:00N 49°07' W 123°05'4 7.8
2017-Dec-14 12:30N 49°07' W 123°11'3 6.7
2017-Dec-14 12:00N 49°07' W 123°16'3 6.0
2017-Dec-14 11:29N 49°04' W 123°19'2 5.1
2017-Dec-14 11:00N 49°03' W 123°17'3 4.7
2017-Dec-14 10:28N 49°01' W 123°14'3 5.6
2017-Dec-14 09:58N 48°59' W 123°11'3 5.6
2017-Dec-14 09:25N 48°57' W 123°07'2 5.7
2017-Dec-14 09:00N 48°55' W 123°05'3 5.5
2017-Dec-14 08:24N 48°53' W 123°01'2 5.3
2017-Dec-14 07:56N 48°51' W 122°58'7 6.7
2017-Dec-14 06:52N 48°47' W 122°50'3 7.3
2017-Dec-14 06:30N 48°46' W 122°46'4 8.3
2017-Dec-14 06:00N 48°42' W 122°43'4 7.8
2017-Dec-14 05:30N 48°38' W 122°44'4 7.7
2017-Dec-14 05:00N 48°34' W 122°45'4 7.5
2017-Dec-14 04:31N 48°31' W 122°44'4 6.9
2017-Dec-14 04:00N 48°27' W 122°44'3 6.7
2017-Dec-14 03:30N 48°24' W 122°44'4 7.1
2017-Dec-14 02:55N 48°20' W 122°46'21 9.4
2017-Dec-14 00:41N 47°60' W 122°36'211.6
2017-Dec-14 00:30N 47°58' W 122°34'510.1
2017-Dec-14 00:00N 47°55' W 122°29'5 9.5
2017-Dec-13 23:30N 47°50' W 122°27'4 8.9
2017-Dec-13 23:01N 47°46' W 122°26'4 8.6
2017-Dec-13 22:30N 47°41' W 122°27'4 8.2
2017-Dec-13 22:01N 47°37' W 122°26'3 6.6
2017-Dec-13 21:31N 47°36' W 122°22'2 3.3
2017-Dec-13 21:01N 47°34' W 122°21'1 1.6
2017-Dec-13 20:29N 47°33' W 122°21'0 0.0
2017-Dec-13 20:00N 47°33' W 122°21'0 0.0
2017-Dec-13 19:31N 47°33' W 122°21'0 0.0
2017-Dec-13 19:00N 47°33' W 122°21'0 0.0
2017-Dec-13 18:11N 47°33' W 122°21'0 0.0
2017-Dec-13 17:56N 47°33' W 122°21'  

Dump ship's entire track history